Dutchess County Airport
KPOU : now visible

Airfield :











YOU CAN JOIN US ON...

 
LOGIN :

Register | Disclaimer

   EN    FR    IT 

 









Legend :    VFR   Marginal VFR   IFR   Intensive IFR   Very Intensive IFR
Visi :
Ceiling :
>= 8 km
>= 3000ft
5 to 8 km
1000 to 3000 ft
1500m to 5 km
500 to 1000 ft
800 to 1500m
200 to 500 ft
< 800m
< 200 ft
Symbols :   Thunderstorms  Fog  Heavy snow  Heavy precipitations  Wind > 20 kt






- Airport Elevation : 165 ft
- IATA code : POU


KPOU - Dutchess County

CURRENT METAR :
  • 221653Z VRB06KT 10SM OVC016 14/09 A3002 RMK AO2 SLP164 T01390094

EXPIRED METARs :
  • 221553Z VRB06KT 10SM BKN019 OVC040 14/09 A3004 RMK AO2 SLP169 T01390094
  • 221508Z 10SM BKN022 OVC038 13/09 A3005 RMK AO2 T01330089
  • 221453Z 00000KT 10SM FEW024 OVC038 12/09 A3007 RMK AO2 SLP179 T01220089 58006

TAF KPOU
Valid from the 22 at 12:00 until the 23 at 12:00 UTC


221133Z 2212/2312 00000KT P6SM FEW018 OVC035
FM221330 10008KT P6SM OVC020
TEMPO 2218/2222 5SM -RA OVC010
FM230000 11006KT 2SM -RA OVC010
FM230600 VRB03KT 4SM -SHRA BKN005
FM231100 28004KT P6SM OVC010



MET'MAP, your aeronautical weather chart ! - Copyright ORBIFLY December 2007 - Disclaimer

ORBIFLY MET'MAP TEAM :

Programming & Development : Alexandra Zaïnal
Concept & Development : Baudouin d'Aumeries
Co-Development & Prog : Marc-Olivier Méhu
Technical & hardware support : Manuel Goepfert

Contact : metmap@orbifly.com




SOURCES & CREDITS :

   NOAA       Earth
Advisory